• Join FlightAware (Why Join?)
  • Login
  • US Flag 
08:53AM EDT


 

Airport Tracker/Info


-or-


 

Live Flight TrackerFlight Track Log ✈ GJS3618 ✈ 02-Jul-2013 ✈ KORD - KBZN

Flight Track Log - Related Links

Times and Time Zones

All times are in EDT time to prevent confusion due to time zone crossing. See the GJS3618 flight status page for this flight to view local times or setup timezone preferences in your user account.

Time Position Orientation Groundspeed Altitude Reporting Facility
EDT Latitude Longitude Course Direction KTS MPH feet Rate Location/Type
10:06PM 42.0167 -87.9667 270° West 168 193 2,100  Level Chicago TRACON
10:07PM 42.0500 -88.0167 312° West 221 254 3,900 2,160 Climbing Chicago TRACON
10:10PM 42.0981 -88.2097 289° West 286 329 8,900 2,340 Climbing Chicago Center
10:11PM 42.0867 -88.3158 262° West 291 335 11,400 1,980 Climbing Chicago Center
10:12PM 41.9668 -88.8371 270° West  Level FlightAware Approximate
10:12PM 42.0897 -88.4292 272° West 307 353 13,000  Level Chicago Center
10:13PM 42.1056 -88.5556 280° West 340 391 14,100 1,320 Climbing Chicago Center
10:14PM 42.1219 -88.6911 279° West 364 419 15,800 1,440 Climbing Chicago Center
10:15PM 42.1453 -88.8408 282° West 373 429 17,100 780 Climbing Chicago Center
10:16PM 42.1697 -88.9811 283° West 380 437 17,500 1,140 Climbing Chicago Center
10:17PM 42.1942 -89.1225 283° West 386 444 19,500 1,800 Climbing Chicago Center
10:18PM 42.2189 -89.2661 283° West 391 450 21,200 1,800 Climbing Chicago Center
10:19PM 42.2494 -89.4325 284° West 393 452 23,200 1,620 Climbing Chicago Center
10:20PM 42.2761 -89.5792 284° West 401 461 24,500 1,260 Climbing Chicago Center
10:21PM 42.3017 -89.7289 283° West 407 468 25,800 1,260 Climbing Chicago Center
10:22PM 42.3356 -89.8758 287° West 410 472 27,100 1,140 Climbing Chicago Center
10:23PM 42.3714 -90.0083 290° West 413 475 28,200 1,020 Climbing Chicago Center
10:24PM 42.4144 -90.1558 292° West 424 488 29,300 1,140 Climbing Chicago Center
10:25PM 42.4622 -90.3328 290° West 422 486 30,600 1,080 Climbing Chicago Center
10:26PM 42.5036 -90.4817 291° West 427 491 31,600 900 Climbing Chicago Center
10:27PM 42.5461 -90.6308 291° West 430 495 32,500 780 Climbing Chicago Center
10:28PM 42.5883 -90.7842 291° West 436 502 33,300 780 Climbing Chicago Center
10:29PM 42.6272 -90.9344 289° West 429 494 34,100 600 Climbing Chicago Center
10:30PM 42.6686 -91.0839 291° West 428 493 34,600 600 Climbing Chicago Center
10:31PM 42.7092 -91.2339 290° West 428 493 35,400 780 Climbing Chicago Center
10:32PM 42.7561 -91.4142 290° West 426 490 36,300 720 Climbing Chicago Center
10:33PM 42.7956 -91.5622 290° West 427 491 36,900 540 Climbing Chicago Center
10:34PM 42.8339 -91.7147 289° West 426 490 37,500 360 Climbing Chicago Center
10:35PM 42.8714 -91.8569 290° West 434 499 37,700 240 Climbing Chicago Center
10:36PM 42.9200 -92.0433 290° West 439 505 38,000 120 Climbing Minneapolis Center
10:37PM 42.9606 -92.1994 290° West 443 510 38,000  Level Chicago Center
10:38PM 43.0025 -92.3611 290° West 454 522 38,000  Level Chicago Center
10:39PM 43.0425 -92.5278 288° West 464 534 38,000  Level Chicago Center
10:40PM 43.0844 -92.6917 289° West 462 532 38,000  Level Chicago Center
10:41PM 43.1258 -92.8583 289° West 464 534 38,000  Level Minneapolis Center
10:42PM 43.1742 -93.0561 289° West 461 531 38,000  Level Minneapolis Center
10:43PM 43.2153 -93.2206 289° West 461 531 38,000  Level Minneapolis Center
10:44PM 43.2558 -93.3847 289° West 460 529 38,000  Level Minneapolis Center
10:45PM 43.2964 -93.5508 289° West 463 533 38,000  Level Minneapolis Center
10:46PM 43.3369 -93.7167 289° West 464 534 38,000  Level Minneapolis Center
10:47PM 43.3764 -93.8853 288° West 466 536 38,000  Level Minneapolis Center
10:48PM 43.4164 -94.0528 288° West 466 536 38,000  Level Minneapolis Center
10:49PM 43.4642 -94.2544 288° West 466 536 38,000  Level Minneapolis Center
10:50PM 43.5056 -94.4300 288° West 465 535 38,000  Level Minneapolis Center
10:51PM 43.5447 -94.6000 288° West 465 535 38,000  Level Minneapolis Center
10:52PM 43.5833 -94.7675 288° West 461 531 38,000  Level Minneapolis Center
10:54PM 43.6225 -94.9342 288° West 457 526 38,000  Level Minneapolis Center
10:55PM 43.6597 -95.0978 288° West 449 517 38,000  Level Minneapolis Center
10:56PM 43.6961 -95.2658 287° West 456 525 38,000  Level Minneapolis Center
10:57PM 43.7344 -95.4328 288° West 455 524 38,000  Level Minneapolis Center
10:58PM 43.7717 -95.6000 287° West 456 525 38,000  Level Minneapolis Center
10:59PM 43.8089 -95.7692 287° West 458 527 38,000  Level Minneapolis Center
11:00PM 43.8453 -95.9383 287° West 457 526 38,000  Level Minneapolis Center
11:01PM 43.8808 -96.1075 286° West 455 524 38,000  Level Minneapolis Center
11:02PM 43.9181 -96.2778 287° West 457 526 38,000  Level Minneapolis Center
11:03PM 43.9533 -96.4472 286° West 453 521 38,000  Level Minneapolis Center
11:04PM 43.9961 -96.6500 286° West 453 521 38,000  Level Minneapolis Center
11:05PM 44.0308 -96.8172 286° West 450 518 38,000  Level Minneapolis Center
11:06PM 44.0653 -96.9842 286° West 449 517 38,000  Level Minneapolis Center
11:07PM 44.0994 -97.1506 286° West 448 516 38,000  Level Minneapolis Center
11:08PM 44.1342 -97.3175 286° West 450 518 38,000  Level Minneapolis Center
11:09PM 44.1675 -97.4825 286° West 444 511 38,000  Level Minneapolis Center
11:10PM 44.2008 -97.6472 286° West 444 511 38,000  Level Minneapolis Center
11:11PM 44.2339 -97.8128 286° West 444 511 38,000  Level Minneapolis Center
11:12PM 44.2656 -97.9786 285° West 444 511 38,000  Level Minneapolis Center
11:13PM 44.2978 -98.1431 285° West 443 510 38,000  Level Minneapolis Center
11:14PM 44.3289 -98.3072 285° West 440 506 38,000  Level Minneapolis Center
11:15PM 44.3622 -98.4750 286° West 439 505 38,000  Level Minneapolis Center
11:16PM 44.3936 -98.6392 285° West 439 505 38,000  Level Minneapolis Center
11:17PM 44.4256 -98.8031 285° West 438 504 38,000  Level Minneapolis Center
11:18PM 44.4619 -99.0003 285° West 436 502 38,000  Level Minneapolis Center
11:19PM 44.4931 -99.1647 285° West 437 503 38,000  Level Minneapolis Center
11:20PM 44.5217 -99.3303 284° West 437 503 38,000  Level Minneapolis Center
11:21PM 44.5519 -99.4944 285° West 435 501 38,000  Level Minneapolis Center
11:22PM 44.5814 -99.6606 284° West 437 503 38,000  Level Minneapolis Center
11:23PM 44.6111 -99.8261 284° West 436 502 38,000  Level Minneapolis Center
11:24PM 44.6400 -99.9911 284° West 433 498 38,000  Level Minneapolis Center
11:25PM 44.6681 -100.1578 283° West 434 499 38,000  Level Minneapolis Center
11:26PM 44.6975 -100.3228 284° West 434 499 38,000  Level Minneapolis Center
11:27PM 44.7256 -100.4872 284° West 431 496 38,000  Level Minneapolis Center
11:28PM 44.7542 -100.6522 284° West 432 497 38,000  Level Minneapolis Center
11:29PM 44.7764 -100.7850 283° West 433 498 38,000  Level Minneapolis Center
11:30PM 44.8100 -100.9828 284° West 433 498 38,000  Level Minneapolis Center
11:31PM 44.8364 -101.1475 283° West 432 497 38,000  Level Minneapolis Center
11:32PM 44.8625 -101.3103 283° West 430 495 38,000  Level Minneapolis Center
11:33PM 44.8883 -101.4736 283° West 428 493 38,000  Level Minneapolis Center
11:34PM 44.9139 -101.6367 283° West 427 491 38,000  Level Minneapolis Center
11:35PM 44.9408 -101.7983 283° West 426 490 38,000  Level Minneapolis Center
11:36PM 44.9683 -101.9589 284° West 423 487 38,000  Level Minneapolis Center
11:37PM 44.9917 -102.1183 282° West 420 483 38,000  Level Minneapolis Center
11:38PM 45.0192 -102.3111 281° West 418 481 38,000  Level Minneapolis Center
11:39PM 45.0431 -102.4739 282° West 420 483 38,000  Level Minneapolis Center
11:40PM 45.0681 -102.6364 282° West 422 486 38,000  Level Minneapolis Center
11:41PM 45.0939 -102.7983 283° West 422 486 38,000  Level Minneapolis Center
11:42PM 45.1175 -102.9625 282° West 424 488 38,000  Level Minneapolis Center
11:43PM 45.1400 -103.1272 281° West 425 489 38,000  Level Minneapolis Center
11:44PM 45.1647 -103.2919 282° West 427 491 38,000  Level Minneapolis Center
11:46PM 45.1964 -103.4553 285° West 429 494 38,000  Level Minneapolis Center
11:47PM 45.2244 -103.6489 282° West 425 489 38,000  Level Minneapolis Center
11:48PM 45.2467 -103.8142 281° West 423 487 38,000  Level Minneapolis Center
11:49PM 45.2700 -103.9783 281° West 424 488 38,000  Level Minneapolis Center
11:50PM 45.2925 -104.1447 281° West 425 489 38,000  Level Minneapolis Center
11:51PM 45.3144 -104.3144 280° West 429 494 38,000  Level Minneapolis Center
11:52PM 45.3372 -104.4833 281° West 432 497 38,000  Level Minneapolis Center
11:53PM 45.3675 -104.7108 281° West 437 503 38,000  Level Salt Lake Center
11:54PM 45.3889 -104.8789 280° West 435 501 38,000  Level Salt Lake Center
11:55PM 45.4139 -105.0797 280° West 432 497 38,000  Level Salt Lake Center
11:56PM 45.4361 -105.2478 281° West 434 499 38,000  Level Salt Lake Center
11:57PM 45.4575 -105.4164 280° West 434 499 38,000  Level Salt Lake Center
11:58PM 45.4769 -105.5844 279° West 433 498 38,000  Level Salt Lake Center
11:59PM 45.4975 -105.7503 280° West 429 494 38,000  Level Salt Lake Center
12:00AM 45.5189 -105.9192 280° West 432 497 38,000  Level Salt Lake Center
12:01AM 45.5392 -106.0844 280° West 428 493 38,000  Level Salt Lake Center
12:02AM 45.5581 -106.2522 279° West 430 495 38,000  Level Salt Lake Center
12:03AM 45.5778 -106.4203 280° West 430 495 38,000  Level Salt Lake Center
12:04AM 45.5967 -106.5867 279° West 429 494 38,000  Level Salt Lake Center
12:05AM 45.6131 -106.7506 278° West 422 486 38,000  Level Salt Lake Center
12:06AM 45.6367 -106.9528 280° West 428 493 38,000  Level Salt Lake Center
12:07AM 45.6572 -107.1219 280° West 433 498 38,000  Level Salt Lake Center
12:08AM 45.6742 -107.2911 278° West 433 498 38,000  Level Salt Lake Center
12:09AM 45.6919 -107.4606 279° West 434 499 38,000  Level Salt Lake Center
12:10AM 45.7100 -107.6292 279° West 432 497 38,000  Level Salt Lake Center
12:11AM 45.7272 -107.7964 278° West 428 493 38,000  Level Salt Lake Center
12:12AM 45.7436 -107.9611 278° West 422 486 38,000 -480 Level Salt Lake Center
12:13AM 45.7600 -108.1256 278° West 421 484 37,100 -1,200 Descending Salt Lake Center
12:14AM 45.7764 -108.2931 278° West 427 491 35,600 -1,080 Descending Salt Lake Center
12:15AM 45.7925 -108.4600 278° West 427 491 35,000 -1,200 Descending Salt Lake Center
12:16AM 45.8086 -108.6356 278° West 443 510 33,300 -2,340 Descending Salt Lake Center
12:17AM 45.8083 -108.8392 270° West 424 488 30,300 -2,760 Descending Salt Lake Center
12:18AM 45.8081 -108.9981 270° West 404 465 27,800 -2,460 Descending Salt Lake Center
12:19AM 45.8075 -109.1544 270° West 395 455 25,300 -2,460 Descending Salt Lake Center
12:20AM 45.8061 -109.3061 269° West 384 442 22,800 -2,460 Descending Salt Lake Center
12:21AM 45.8056 -109.4536 270° West 375 432 20,300 -2,580 Descending Salt Lake Center
12:22AM 45.8042 -109.6019 269° West 361 415 17,700 -1,680 Descending Salt Lake Center
12:23AM 45.8025 -109.7422 269° West 355 409 17,000 -360 Descending Salt Lake Center
12:24AM 45.8008 -109.8819 269° West 363 418 17,000  Level Salt Lake Center
12:25AM 45.7983 -110.0278 269° West 367 422 17,000 -960 Level Salt Lake Center
12:26AM 45.7964 -110.1769 269° West 373 429 15,100 -2,220 Descending Salt Lake Center
12:28AM 45.7950 -110.3189 269° West 364 419 12,600 -1,560 Descending Salt Lake Center
12:29AM 45.7917 -110.4564 268° West 352 405 12,000 -300 Descending Salt Lake Center
12:30AM 45.7900 -110.5958 269° West 350 403 12,000  Level Salt Lake Center
12:31AM 45.7867 -110.7419 268° West 331 381 12,000 -60 Level Salt Lake Center
12:32AM 45.7844 -110.8575 268° West 294 338 11,900 -540 Descending Salt Lake Center
12:33AM 45.7956 -110.9561 279° West 260 299 11,000 -1,080 Descending Salt Lake Center
12:34AM 45.8242 -111.0306 299° West 231 266 9,800 -1,380 Descending Salt Lake Center
12:35AM 45.8569 -111.0986 305° West 217 250 8,300 -1,500 Descending Salt Lake Center
12:36AM 45.8783 -111.1778 291° West 217 250 6,800 -1,020 Descending Salt Lake Center
12:37AM 45.8728 -111.2378 262° West 194 223 6,300 -600 Descending Salt Lake Center
12:38AM 45.8347 -111.2314 173° South 170 196 5,700 -720 Descending Salt Lake Center
12:39AM 45.8058 -111.1919 136° Southeast 153 176 4,900 -840 Descending Salt Lake Center